juil
10

MX LIVE – GP D’ALLEMAGNE : INFOS ET RÉSULTATS SUR PRE111IERMOTOCROSS

SAMEDI

MX1 – Free Practice – Classification
Pos Nr Rider Nat. Fed. Bike Bestlaptime in lap Diff. First Diff. Prev. Tot. Laps Speed

1 24 Simpson, Shaun GBR ACU Honda 2:04.557 10 0:00.000 0:00.000 10 47.255
2 377 Pourcel, Christophe FRA FFM Kawasaki 2:04.584 7 0:00.027 0:00.027 9 47.245
3 222 Cairoli, Antonio ITA FMI KTM 2:04.614 6 0:00.057 0:00.030 12 47.234
4 777 Bobryshev, Evgeny RUS MFR Honda 2:04.992 7 0:00.435 0:00.378 11 47.091
5 19 Philippaerts, David ITA FMI Yamaha 2:05.767 11 0:01.210 0:00.775 11 46.801
6 999 Goncalves, Rui POR FMP Honda 2:05.841 12 0:01.284 0:00.074 12 46.773
7 121 Boog, Xavier FRA FFM Kawasaki 2:05.867 12 0:01.310 0:00.026 12 46.764
8 20 Aranda, Gregory FRA FFM Kawasaki 2:06.114 11 0:01.557 0:00.247 11 46.672
9 7 Barragan, Jonathan ESP RFME Kawasaki 2:06.394 9 0:01.837 0:00.280 13 46.569
10 183 Frossard, Steven FRA FFM Yamaha 2:06.401 6 0:01.844 0:00.007 9 46.566
11 9 de Dycker, Ken BEL FMB Honda 2:07.124 11 0:02.567 0:00.723 11 46.301
12 14 de Reuver, Marc NED KNMV Yamaha 2:07.842 11 0:03.285 0:00.718 11 46.041
13 287 Schiffer, Marcus GER DMSB Suzuki 2:07.895 12 0:03.338 0:00.053 12 46.022
14 75 Wouts, Kevin BEL DMSB Kawasaki 2:07.974 10 0:03.417 0:00.079 13 45.994
15 6 Leok, Tanel EST EMF TM 2:07.977 8 0:03.420 0:00.003 12 45.993
16 25 Desalle, Clement BEL FMB Suzuki 2:08.283 9 0:03.726 0:00.306 12 45.883
17 10 Boissiere, Anthony FRA FFM Yamaha 2:08.607 11 0:04.050 0:00.324 11 45.767
18 50 Barr, Martin GBR MCUI KTM 2:08.681 7 0:04.124 0:00.074 12 45.741
19 54 Anderson, Brad GBR ACU Honda 2:09.076 5 0:04.519 0:00.395 11 45.601
20 45 Leonce, Loic FRA FFM Aprilia 2:09.319 10 0:04.762 0:00.243 12 45.515
21 11 Ramon, Steve BEL FMB Suzuki 2:09.454 10 0:04.897 0:00.135 10 45.468
22 2 Nagl, Maximilian GER DMSB KTM 2:09.619 10 0:05.062 0:00.165 10 45.41
23 108 Nemeth, Kornel HUN MAMS KTM 2:09.619 10 0:05.062 0:00.000 10 45.41
24 22 Strijbos, Kevin BEL FMB Suzuki 2:09.700 9 0:05.143 0:00.081 10 45.382
25 52 Walkner, Matthias AUT OeAMTC KTM 2:10.545 10 0:05.988 0:00.845 11 45.088
26 49 Schmidinger, Günter AUT OeAMTC Honda 2:10.795 10 0:06.238 0:00.250 10 45.002
27 39 Guarneri, Davide ITA FMI Kawasaki 2:11.114 8 0:06.557 0:00.319 9 44.892
28 61 Brakke, Herjan NED KNMV Yamaha 2:11.141 9 0:06.584 0:00.027 13 44.883
29 115 Campano Jimenez, Carlos ESP RFME Yamaha 2:11.186 8 0:06.629 0:00.045 9 44.868
30 95 Augusts, Justs LAT LAMSF Honda 2:11.438 4 0:06.881 0:00.252 8 44.782
31 387 Martens, Yentel BEL MUL KTM 2:11.454 6 0:06.897 0:00.016 12 44.776
32 41 Smith, Alfie GBR ACU Aprilia 2:11.635 5 0:07.078 0:00.181 9 44.715
33 74 Steinbergs, Ivo LAT LAMSF Kawasaki 2:13.401 10 0:08.844 0:01.766 10 44.123
34 142 Parker, Nathan GBR ACU KTM 2:14.025 8 0:09.468 0:00.624 12 43.917
35 215 Lynggaard, Kasper DEN DMU Kawasaki 2:14.072 6 0:09.515 0:00.047 8 43.902
36 127 Eriksson, Toni FIN SML Kawasaki 2:15.883 10 0:11.326 0:01.811 13 43.317
37 70 Furlato, Yves SUI FMS Kawasaki 2:16.037 10 0:11.480 0:00.154 11 43.268
38 26 Delince, Jeremy BEL FMB KTM 2:19.416 3 0:14.859 0:03.379 11 42.219
39 30 Lieber, Cedric BEL MUL KTM 2:32.595 7 0:28.038 0:13.179 7 38.573

MX1 – Pre-Qualifying Practice – Classification
Pos Nr Rider Nat. Fed. Bike Bestlaptime in lap Diff. First Diff. Prev. Tot. Laps Speed

1 777 Bobryshev, Evgeny RUS MFR Honda 1:59.876 5 0:00.000 0:00.000 9 49.101
2 222 Cairoli, Antonio ITA FMI KTM 1:59.879 12 0:00.003 0:00.003 12 49.1
3 2 Nagl, Maximilian GER DMSB KTM 2:00.317 9 0:00.441 0:00.438 9 48.921
4 24 Simpson, Shaun GBR ACU Honda 2:00.436 6 0:00.560 0:00.119 9 48.872
5 6 Leok, Tanel EST EMF TM 2:00.513 9 0:00.637 0:00.077 12 48.841
6 999 Goncalves, Rui POR FMP Honda 2:00.748 11 0:00.872 0:00.235 12 48.746
7 25 Desalle, Clement BEL FMB Suzuki 2:00.792 6 0:00.916 0:00.044 10 48.728
8 19 Philippaerts, David ITA FMI Yamaha 2:00.910 10 0:01.034 0:00.118 11 48.681
9 11 Ramon, Steve BEL FMB Suzuki 2:00.964 8 0:01.088 0:00.054 10 48.659
10 20 Aranda, Gregory FRA FFM Kawasaki 2:01.418 11 0:01.542 0:00.454 11 48.477
11 377 Pourcel, Christophe FRA FFM Kawasaki 2:01.426 7 0:01.550 0:00.008 9 48.474
12 9 de Dycker, Ken BEL FMB Honda 2:01.481 4 0:01.605 0:00.055 10 48.452
13 22 Strijbos, Kevin BEL FMB Suzuki 2:01.642 6 0:01.766 0:00.161 10 48.388
14 7 Barragan, Jonathan ESP RFME Kawasaki 2:01.647 6 0:01.771 0:00.005 11 48.386
15 183 Frossard, Steven FRA FFM Yamaha 2:01.722 6 0:01.846 0:00.075 10 48.356
16 287 Schiffer, Marcus GER DMSB Suzuki 2:01.805 7 0:01.929 0:00.083 11 48.323
17 39 Guarneri, Davide ITA FMI Kawasaki 2:01.931 10 0:02.055 0:00.126 11 48.273
18 14 de Reuver, Marc NED KNMV Yamaha 2:02.099 9 0:02.223 0:00.168 9 48.207
19 121 Boog, Xavier FRA FFM Kawasaki 2:02.158 11 0:02.282 0:00.059 13 48.184
20 10 Boissiere, Anthony FRA FFM Yamaha 2:03.374 11 0:03.498 0:01.216 11 47.709
21 45 Leonce, Loic FRA FFM Aprilia 2:03.630 9 0:03.754 0:00.256 9 47.61
22 54 Anderson, Brad GBR ACU Honda 2:03.907 10 0:04.031 0:00.277 10 47.503
23 108 Nemeth, Kornel HUN MAMS KTM 2:04.281 4 0:04.405 0:00.374 10 47.36
24 26 Delince, Jeremy BEL FMB KTM 2:04.631 7 0:04.755 0:00.350 7 47.227
25 50 Barr, Martin GBR MCUI KTM 2:04.877 10 0:05.001 0:00.246 10 47.134
26 75 Wouts, Kevin BEL DMSB Kawasaki 2:05.131 3 0:05.255 0:00.254 10 47.039
27 49 Schmidinger, Günter AUT OeAMTC Honda 2:05.496 8 0:05.620 0:00.365 11 46.902
28 52 Walkner, Matthias AUT OeAMTC KTM 2:05.724 10 0:05.848 0:00.228 11 46.817
29 115 Campano Jimenez, Carlos ESP RFME Yamaha 2:05.768 10 0:05.892 0:00.044 11 46.8
30 215 Lynggaard, Kasper DEN DMU Kawasaki 2:06.795 7 0:06.919 0:01.027 10 46.421
31 142 Parker, Nathan GBR ACU KTM 2:07.071 3 0:07.195 0:00.276 6 46.321
32 61 Brakke, Herjan NED KNMV Yamaha 2:07.295 3 0:07.419 0:00.224 12 46.239
33 74 Steinbergs, Ivo LAT LAMSF Kawasaki 2:07.587 8 0:07.711 0:00.292 8 46.133
34 95 Augusts, Justs LAT LAMSF Honda 2:07.987 5 0:08.111 0:00.400 6 45.989
35 387 Martens, Yentel BEL MUL KTM 2:08.180 8 0:08.304 0:00.193 11 45.92
36 41 Smith, Alfie GBR ACU Aprilia 2:08.278 6 0:08.402 0:00.098 11 45.885
37 127 Eriksson, Toni FIN SML Kawasaki 2:08.686 12 0:08.810 0:00.408 12 45.739
38 70 Furlato, Yves SUI FMS Kawasaki 2:09.229 3 0:09.353 0:00.543 8 45.547

MANCHE QUALIFICATIVE MX1

Holeshot de Cairoli.. Christophe Pourcel va de suite pratiquer son effort afin de tenter de recoller au Top 5.. Un petit orage va éclater pendant la manche.. Christophe Pourcel va un peu perdre le contact avec Philippaerts et Goncalves.. Simpson va d’ailleurs revenir sur lui à 5 min de la fin de manche.. Le nouveau Pilote CLS n’arrivera pas à revenir sur le « Gros » Top 5 devant lui.. Grosse bagarre entre Nagl et Simpson dans les 2 derniers tours.. Cavalier seul d’Antonio Cairoli..

MX1 – Qualifying Race – Classification
Pos Nr Rider Nat. Fed. Bike Time laps Diff. First Diff. Prev. Bestlaptime in lap Speed

1 222 Cairoli, Antonio ITA FMI KTM 25:31.413 12 0:00.000 0:00.000 2:04.725 2 47.192
2 777 Bobryshev, Evgeny RUS MFR Honda 25:40.237 12 0:08.824 0:08.824 2:04.174 2 47.401
3 19 Philippaerts, David ITA FMI Yamaha 25:44.634 12 0:13.221 0:04.397 2:04.447 4 47.297
4 183 Frossard, Steven FRA FFM Yamaha 25:48.403 12 0:16.990 0:03.769 2:03.982 5 47.475
5 999 Goncalves, Rui POR FMP Honda 25:49.929 12 0:18.516 0:01.526 2:05.419 4 46.931
6 377 Pourcel, Christophe FRA FFM Kawasaki 25:56.430 12 0:25.017 0:06.501 2:05.049 4 47.07
7 24 Simpson, Shaun GBR ACU Honda 25:57.304 12 0:25.891 0:00.874 2:06.021 4 46.707
8 2 Nagl, Maximilian GER DMSB KTM 26:01.078 12 0:29.665 0:03.774 2:05.894 4 46.754
9 9 de Dycker, Ken BEL FMB Honda 26:05.429 12 0:34.016 0:04.351 2:05.336 4 46.962
10 7 Barragan, Jonathan ESP RFME Kawasaki 26:09.333 12 0:37.920 0:03.904 2:07.323 6 46.229
11 11 Ramon, Steve BEL FMB Suzuki 26:12.869 12 0:41.456 0:03.536 2:06.827 4 46.41
12 25 Desalle, Clement BEL FMB Suzuki 26:14.942 12 0:43.529 0:02.073 2:06.396 5 46.568
13 121 Boog, Xavier FRA FFM Kawasaki 26:16.097 12 0:44.684 0:01.155 2:06.632 4 46.481
14 6 Leok, Tanel EST EMF TM 26:20.393 12 0:48.980 0:04.296 2:07.796 5 46.058
15 39 Guarneri, Davide ITA FMI Kawasaki 26:31.532 12 1:00.119 0:11.139 2:07.925 4 46.011
16 14 de Reuver, Marc NED KNMV Yamaha 26:34.135 12 1:02.722 0:02.603 2:08.993 5 45.63
17 54 Anderson, Brad GBR ACU Honda 26:35.775 12 1:04.362 0:01.640 2:08.674 4 45.744
18 287 Schiffer, Marcus GER DMSB Suzuki 26:43.979 12 1:12.566 0:08.204 2:09.266 7 45.534
19 20 Aranda, Gregory FRA FFM Kawasaki 26:44.921 12 1:13.508 0:00.942 2:09.421 6 45.479
20 10 Boissiere, Anthony FRA FFM Yamaha 26:47.323 12 1:15.910 0:02.402 2:10.039 3 45.263

21 75 Wouts, Kevin BEL DMSB Kawasaki 27:01.848 12 1:30.435 0:14.525 2:10.238 4 45.194
22 49 Schmidinger, Günter AUT OeAMTC Honda 27:13.559 12 1:42.146 0:11.711 2:10.479 4 45.111
23 108 Nemeth, Kornel HUN MAMS KTM 27:17.981 12 1:46.568 0:04.422 2:10.990 4 44.935
24 52 Walkner, Matthias AUT OeAMTC KTM 27:19.707 12 1:48.294 0:01.726 2:12.300 2 44.49
25 50 Barr, Martin GBR MCUI KTM 27:26.418 12 1:55.005 0:06.711 2:12.561 2 44.402
26 61 Brakke, Herjan NED KNMV Yamaha 27:33.654 12 2:02.241 0:07.236 2:12.934 2 44.278
27 387 Martens, Yentel BEL MUL KTM 27:39.177 12 2:07.764 0:05.523 2:12.767 5 44.333
28 215 Lynggaard, Kasper DEN DMU Kawasaki 27:41.395 12 2:09.982 0:02.218 2:13.258 3 44.17
29 74 Steinbergs, Ivo LAT LAMSF Kawasaki 27:46.362 12 2:14.949 0:04.967 2:13.320 4 44.149
30 41 Smith, Alfie GBR ACU Aprilia 27:46.785 12 2:15.372 0:00.423 2:13.040 3 44.242
31 45 Leonce, Loic FRA FFM Aprilia 25:34.164 11 1 lap 1 lap 2:09.913 4 45.307
32 127 Eriksson, Toni FIN SML Kawasaki 25:49.065 11 1 lap 0:14.901 2:15.217 3 43.53
33 95 Augusts, Justs LAT LAMSF Honda 26:35.004 11 1 lap 0:45.939 2:12.871 3 44.299
34 70 Furlato, Yves SUI FMS Kawasaki 26:42.665 11 1 lap 0:07.661 2:15.291 3 43.506
35 22 Strijbos, Kevin BEL FMB Suzuki 13:23.541 6 6 laps 5 laps 2:08.356 6 45.857
36 115 Campano Jimenez, Carlos ESP RFME Yamaha 2:38.386 1 11 laps 5 laps 2:18.160 1 42.603

DIMANCHE / MX1 – Warm-up – Classification
Pos Nr Rider Nat. Fed. Bike Bestlaptime in lap Diff. First Diff. Prev. Tot. Laps Speed

1 777 Bobryshev, Evgeny RUS MFR Honda 2:01.631 7 0:00.000 0:00.000 8 48.392
2 20 Aranda, Gregory FRA FFM Kawasaki 2:02.416 4 0:00.785 0:00.785 7 48.082
3 9 de Dycker, Ken BEL FMB Honda 2:02.554 8 0:00.923 0:00.138 8 48.028
4 121 Boog, Xavier FRA FFM Kawasaki 2:03.140 8 0:01.509 0:00.586 9 47.799
5 999 Goncalves, Rui POR FMP Honda 2:03.172 8 0:01.541 0:00.032 8 47.787
6 6 Leok, Tanel EST EMF TM 2:03.294 8 0:01.663 0:00.122 8 47.74
7 222 Cairoli, Antonio ITA FMI KTM 2:03.663 5 0:02.032 0:00.369 5 47.597
8 24 Simpson, Shaun GBR ACU Honda 2:03.677 4 0:02.046 0:00.014 8 47.592
9 19 Philippaerts, David ITA FMI Yamaha 2:03.735 6 0:02.104 0:00.058 8 47.569
10 14 de Reuver, Marc NED KNMV Yamaha 2:03.813 6 0:02.182 0:00.078 8 47.539
11 7 Barragan, Jonathan ESP RFME Kawasaki 2:03.892 8 0:02.261 0:00.079 8 47.509
12 287 Schiffer, Marcus GER DMSB Suzuki 2:04.117 9 0:02.486 0:00.225 9 47.423
13 75 Wouts, Kevin BEL DMSB Kawasaki 2:04.531 5 0:02.900 0:00.414 9 47.265
14 108 Nemeth, Kornel HUN MAMS KTM 2:04.800 7 0:03.169 0:00.269 8 47.163
15 50 Barr, Martin GBR MCUI KTM 2:04.865 7 0:03.234 0:00.065 8 47.139
16 54 Anderson, Brad GBR ACU Honda 2:04.918 7 0:03.287 0:00.053 8 47.119
17 11 Ramon, Steve BEL FMB Suzuki 2:04.927 4 0:03.296 0:00.009 9 47.116
18 45 Leonce, Loic FRA FFM Aprilia 2:05.265 6 0:03.634 0:00.338 8 46.988
19 10 Boissiere, Anthony FRA FFM Yamaha 2:05.559 7 0:03.928 0:00.294 7 46.878
20 2 Nagl, Maximilian GER DMSB KTM 2:05.664 7 0:04.033 0:00.105 8 46.839
21 115 Campano Jimenez, Carlos ESP RFME Yamaha 2:06.439 5 0:04.808 0:00.775 7 46.552
22 377 Pourcel, Christophe FRA FFM Kawasaki 2:07.067 4 0:05.436 0:00.628 4 46.322
23 215 Lynggaard, Kasper DEN DMU Kawasaki 2:07.180 4 0:05.549 0:00.113 7 46.281
24 52 Walkner, Matthias AUT OeAMTC KTM 2:07.216 7 0:05.585 0:00.036 8 46.268
25 387 Martens, Yentel BEL MUL KTM 2:07.565 5 0:05.934 0:00.349 7 46.141
26 25 Desalle, Clement BEL FMB Suzuki 2:07.756 6 0:06.125 0:00.191 8 46.072
27 49 Schmidinger, Günter AUT OeAMTC Honda 2:07.818 6 0:06.187 0:00.062 6 46.05
28 61 Brakke, Herjan NED KNMV Yamaha 2:07.982 7 0:06.351 0:00.164 8 45.991
29 95 Augusts, Justs LAT LAMSF Honda 2:08.179 8 0:06.548 0:00.197 8 45.92
30 183 Frossard, Steven FRA FFM Yamaha 2:08.471 3 0:06.840 0:00.292 8 45.816
31 74 Steinbergs, Ivo LAT LAMSF Kawasaki 2:08.539 7 0:06.908 0:00.068 7 45.792
32 41 Smith, Alfie GBR ACU Aprilia 2:08.790 7 0:07.159 0:00.251 7 45.702
33 127 Eriksson, Toni FIN SML Kawasaki 2:09.637 4 0:08.006 0:00.847 9 45.404
34 22 Strijbos, Kevin BEL FMB Suzuki 2:10.485 8 0:08.854 0:00.848 9 45.109
35 70 Furlato, Yves SUI FMS Kawasaki 2:11.062 5 0:09.431 0:00.577 7 44.91
36 39 Guarneri, Davide ITA FMI Kawasaki 2:16.471 4 0:14.840 0:05.409 6 43.13

DIMANCHE / 1 ÈRE MANCHE MX1

Holeshot de Bobryshev, Christophe Pourcel va partir 4 Ème mais va perdre plusieurs place dès le premier tour..

Chute de Boissière 1 tour plus tard (il abandonnera quelques minutes plus tard..).. À 22 mn de la fin de manche Christophe Pourcel va craquer et perdre pas mal de places.. Il abandonnera à 21 mn de la fin.. (!)

À 9 min de la fin de manche Antonio Cairoli va mettre la pression sur Steven Frossard.. Cairoli le passera 1 min plus tard..

MX1 – Grand Prix Race 1 – Classification
Pos Nr Rider Nat. Fed. Bike Time laps Diff. First Diff. Prev. Bestlaptime in lap Speed

1 777 Bobryshev, Evgeny RUS MFR Honda 39:44.894 19 0:00.000 0:00.000 2:01.956 9 48.263
2 222 Cairoli, Antonio ITA FMI KTM 39:48.915 19 0:04.021 0:04.021 2:03.748 8 47.564
3 183 Frossard, Steven FRA FFM Yamaha 39:50.567 19 0:05.673 0:01.652 2:03.536 8 47.646
4 2 Nagl, Maximilian GER DMSB KTM 39:51.671 19 0:06.777 0:01.104 2:03.394 7 47.701
5 25 Desalle, Clement BEL FMB Suzuki 40:07.275 19 0:22.381 0:15.604 2:03.898 10 47.507
6 9 de Dycker, Ken BEL FMB Honda 40:10.213 19 0:25.319 0:02.938 2:03.812 8 47.54
7 999 Goncalves, Rui POR FMP Honda 40:25.430 19 0:40.536 0:15.217 2:04.788 7 47.168
8 7 Barragan, Jonathan ESP RFME Kawasaki 40:33.639 19 0:48.745 0:08.209 2:04.784 6 47.17
9 19 Philippaerts, David ITA FMI Yamaha 40:36.667 19 0:51.773 0:03.028 2:04.482 10 47.284
10 11 Ramon, Steve BEL FMB Suzuki 40:39.863 19 0:54.969 0:03.196 2:05.265 7 46.988
11 24 Simpson, Shaun GBR ACU Honda 40:46.405 19 1:01.511 0:06.542 2:05.838 7 46.774
12 39 Guarneri, Davide ITA FMI Kawasaki 40:49.427 19 1:04.533 0:03.022 2:04.846 9 47.146
13 121 Boog, Xavier FRA FFM Kawasaki 40:50.707 19 1:05.813 0:01.280 2:05.360 5 46.953
14 14 de Reuver, Marc NED KNMV Yamaha 40:52.033 19 1:07.139 0:01.326 2:05.981 7 46.721
15 6 Leok, Tanel EST EMF TM 40:53.457 19 1:08.563 0:01.424 2:05.826 7 46.779
16 54 Anderson, Brad GBR ACU Honda 41:00.351 19 1:15.457 0:06.894 2:06.512 11 46.525
17 20 Aranda, Gregory FRA FFM Kawasaki 41:14.668 19 1:29.774 0:14.317 2:06.590 12 46.497
18 287 Schiffer, Marcus GER DMSB Suzuki 41:33.626 19 1:48.732 0:18.958 2:07.343 10 46.222
19 52 Walkner, Matthias AUT OeAMTC KTM 41:35.849 19 1:50.955 0:02.223 2:08.398 18 45.842
20 49 Schmidinger, Günter AUT OeAMTC Honda 42:04.156 19 2:19.262 0:28.307 2:08.817 4 45.693
21 115 Campano Jimenez, Carlos ESP RFME Yamaha 39:56.156 18 1 lap 1 lap 2:08.769 14 45.71
22 75 Wouts, Kevin BEL DMSB Kawasaki 40:12.459 18 1 lap 0:16.303 2:09.875 4 45.321
23 41 Smith, Alfie GBR ACU Aprilia 40:16.765 18 1 lap 0:04.306 2:10.533 18 45.092
24 50 Barr, Martin GBR MCUI KTM 40:20.969 18 1 lap 0:04.204 2:09.172 4 45.567
25 61 Brakke, Herjan NED KNMV Yamaha 40:22.916 18 1 lap 0:01.947 2:10.189 8 45.211
26 74 Steinbergs, Ivo LAT LAMSF Kawasaki 40:45.469 18 1 lap 0:22.553 2:11.344 6 44.814
27 127 Eriksson, Toni FIN SML Kawasaki 41:31.307 18 1 lap 0:45.838 2:13.824 6 43.983
28 95 Augusts, Justs LAT LAMSF Honda 42:16.911 18 1 lap 0:45.604 2:10.950 7 44.948
29 70 Furlato, Yves SUI FMS Kawasaki 39:57.225 17 2 laps 1 lap 2:12.895 6 44.291
30 215 Lynggaard, Kasper DEN DMU Kawasaki 26:53.398 12 7 laps 5 laps 2:09.765 9 45.359
31 108 Nemeth, Kornel HUN MAMS KTM 22:15.358 10 9 laps 2 laps 2:08.480 6 45.813
32 387 Martens, Yentel BEL MUL KTM 18:31.715 8 11 laps 2 laps 2:12.748 3 44.34
33 45 Leonce, Loic FRA FFM Aprilia 13:30.765 6 13 laps 2 laps 2:07.800 6 46.056
34 377 Pourcel, Christophe FRA FFM Kawasaki 11:05.774 5 14 laps 1 lap 2:07.070 4 46.321
35 22 Strijbos, Kevin BEL FMB Suzuki 11:15.220 5 14 laps 0:09.446 2:06.683 5 46.462
36 10 Boissiere, Anthony FRA FFM Yamaha 10:54.151 3 16 laps 2 laps 2:13.648 3 44.041

2 ÈME MANCHE MX1

Holeshot de Cairoli, mauvais départ pour Steven Frossard.. Chute d’Antonio Cairoli.. Xavier Boog va aller à la faute en chutant lourdement.. Chute de Ramon à 26 mn.. De Dycker passe Christophe Pourcel qui est désormais en 8 Ème position.. Le français se fait doubler par plusieurs autres Pilotes.. Chute de Frossard.. Cairoli passe Nagl dans la foulée.. Christophe Pourcel rentre aux stands à 20 mn de la fin de manche.. Pourcel repart loin.. Steven Frossard fait son effort pour revenir et marquer le maximum de points.. Retour aux stands de Christophe Pourcel à 7 min de la fin de manche et abandon du français.. Dernier tour de folie entre Bobryshev et Cairoli qui tentera une ultime attaque mais le russe restera solide..

MX1 – Grand Prix Race 2 – Classification
Pos Nr Rider Nat. Fed. Bike Time laps Diff. First Diff. Prev. Bestlaptime in lap Speed

1 777 Bobryshev, Evgeny RUS MFR Honda 39:48.006 19 0:00.000 0:00.000 2:02.716 4 47.964
2 222 Cairoli, Antonio ITA FMI KTM 39:51.716 19 0:03.710 0:03.710 2:02.591 4 48.013
3 25 Desalle, Clement BEL FMB Suzuki 40:09.510 19 0:21.504 0:17.794 2:02.844 4 47.914
4 999 Goncalves, Rui POR FMP Honda 40:15.400 19 0:27.394 0:05.890 2:03.450 3 47.679
5 9 de Dycker, Ken BEL FMB Honda 40:20.553 19 0:32.547 0:05.153 2:03.318 8 47.73
6 7 Barragan, Jonathan ESP RFME Kawasaki 40:24.857 19 0:36.851 0:04.304 2:04.517 7 47.271
7 2 Nagl, Maximilian GER DMSB KTM 40:26.620 19 0:38.614 0:01.763 2:02.992 4 47.857
8 19 Philippaerts, David ITA FMI Yamaha 40:29.571 19 0:41.565 0:02.951 2:04.656 3 47.218
9 11 Ramon, Steve BEL FMB Suzuki 40:57.003 19 1:08.997 0:27.432 2:05.082 7 47.057
10 14 de Reuver, Marc NED KNMV Yamaha 41:07.055 19 1:19.049 0:10.052 2:04.697 6 47.202
11 54 Anderson, Brad GBR ACU Honda 41:09.410 19 1:21.404 0:02.355 2:06.228 4 46.63
12 24 Simpson, Shaun GBR ACU Honda 41:16.977 19 1:28.971 0:07.567 2:06.051 3 46.695
13 20 Aranda, Gregory FRA FFM Kawasaki 41:19.385 19 1:31.379 0:02.408 2:07.391 7 46.204
14 10 Boissiere, Anthony FRA FFM Yamaha 41:31.761 19 1:43.755 0:12.376 2:07.549 3 46.147
15 183 Frossard, Steven FRA FFM Yamaha 41:44.744 19 1:56.738 0:12.983 2:05.153 3 47.03

16 75 Wouts, Kevin BEL DMSB Kawasaki 41:46.259 19 1:58.253 0:01.515 2:06.964 3 46.36
17 121 Boog, Xavier FRA FFM Kawasaki 41:47.592 19 1:59.586 0:01.333 2:08.142 9 45.933
18 52 Walkner, Matthias AUT OeAMTC KTM 41:59.720 19 2:11.714 0:12.128 2:08.983 9 45.634
19 49 Schmidinger, Günter AUT OeAMTC Honda 40:06.098 18 1 lap 1 lap 2:09.396 3 45.488
20 115 Campano Jimenez, Carlos ESP RFME Yamaha 40:30.695 18 1 lap 0:24.597 2:08.112 7 45.944
21 61 Brakke, Herjan NED KNMV Yamaha 40:41.450 18 1 lap 0:10.755 2:10.410 10 45.135
22 127 Eriksson, Toni FIN SML Kawasaki 40:52.642 18 1 lap 0:11.192 2:10.886 4 44.97
23 74 Steinbergs, Ivo LAT LAMSF Kawasaki 41:09.098 18 1 lap 0:16.456 2:11.625 3 44.718
24 41 Smith, Alfie GBR ACU Aprilia 41:22.575 18 1 lap 0:13.477 2:10.199 3 45.208
25 215 Lynggaard, Kasper DEN DMU Kawasaki 40:01.921 17 2 laps 1 lap 2:11.311 4 44.825
26 39 Guarneri, Davide ITA FMI Kawasaki 30:38.166 14 5 laps 3 laps 2:05.176 5 47.022
27 6 Leok, Tanel EST EMF TM 25:40.170 12 7 laps 2 laps 2:05.142 10 47.035
28 108 Nemeth, Kornel HUN MAMS KTM 22:13.904 10 9 laps 2 laps 2:08.121 6 45.941
29 45 Leonce, Loic FRA FFM Aprilia 22:23.303 10 9 laps 0:09.399 2:08.896 5 45.665
30 387 Martens, Yentel BEL MUL KTM 20:48.336 9 10 laps 1 lap 2:10.887 2 44.97
31 377 Pourcel, Christophe FRA FFM Kawasaki 23:10.462 9 10 laps 2:22.126 2:05.867 3 46.764
32 22 Strijbos, Kevin BEL FMB Suzuki 11:11.687 5 14 laps 4 laps 2:07.419 4 46.194
33 50 Barr, Martin GBR MCUI KTM 11:26.031 5 14 laps 0:14.344 2:10.771 3 45.01
34 287 Schiffer, Marcus GER DMSB Suzuki 8:49.115 4 15 laps 1 lap 2:05.967 3 46.727
35 70 Furlato, Yves SUI FMS Kawasaki 9:41.909 4 15 laps 0:52.794 2:11.314 3 44.824
36 95 Augusts, Justs LAT LAMSF Honda 2:43.649 1 18 laps 3 laps 2:22.516 1 41.301

MX1 – GP Classification
Pos Nr Rider Nat. Fed. Bike Race 1 Race 2 Total

1 777 Bobryshev, Evgeny RUS MFR Honda 25 25 50
2 222 Cairoli, Antonio ITA FMI KTM 22 22 44
3 25 Desalle, Clement BEL FMB Suzuki 16 20 36
4 999 Goncalves, Rui POR FMP Honda 14 18 32
5 2 Nagl, Maximilian GER DMSB KTM 18 14 32
6 9 de Dycker, Ken BEL FMB Honda 15 16 31
7 7 Barragan, Jonathan ESP RFME Kawasaki 13 15 28
8 183 Frossard, Steven FRA FFM Yamaha 20 6 26
9 19 Philippaerts, David ITA FMI Yamaha 12 13 25
10 11 Ramon, Steve BEL FMB Suzuki 11 12 23
11 24 Simpson, Shaun GBR ACU Honda 10 9 19
12 14 de Reuver, Marc NED KNMV Yamaha 7 11 18
13 20 Aranda, Gregory FRA FFM Kawasaki 5 8 13
14 54 Anderson, Brad GBR ACU Honda 2 10 12
15 121 Boog, Xavier FRA FFM Kawasaki 8 4 12
16 39 Guarneri, Davide ITA FMI Kawasaki 9 0 9
17 10 Boissiere, Anthony FRA FFM Yamaha 0 7 7
18 52 Walkner, Matthias AUT OeAMTC KTM 3 3 6
19 6 Leok, Tanel EST EMF TM 6 0 6
20 75 Wouts, Kevin BEL DMSB Kawasaki 0 5 5
21 287 Schiffer, Marcus GER DMSB Suzuki 4 0 4
22 49 Schmidinger, Günter AUT OeAMTC Honda 1 2 3
23 115 Campano Jimenez, Carlos ESP RFME Yamaha 0 1 1
24 61 Brakke, Herjan NED KNMV Yamaha 0 0 0
25 127 Eriksson, Toni FIN SML Kawasaki 0 0 0
26 74 Steinbergs, Ivo LAT LAMSF Kawasaki 0 0 0
27 41 Smith, Alfie GBR ACU Aprilia 0 0 0
28 215 Lynggaard, Kasper DEN DMU Kawasaki 0 0 0
29 108 Nemeth, Kornel HUN MAMS KTM 0 0 0
30 45 Leonce, Loic FRA FFM Aprilia 0 0 0
31 387 Martens, Yentel BEL MUL KTM 0 0 0
32 377 Pourcel, Christophe FRA FFM Kawasaki 0 0 0..

MX1 – World Championship Classification
Pos Nr Rider Nat. Total BUL NED USA BRA FRA POR ESP SWE GER LAT BEL CZE GBR EUR ITA

1 222 Cairoli, A. ITA 366 14-11 25-22 22-10 25-22 22-20 22-22 22-25 16-22 22-22 - - - - - - - - - - - -
2 25 Desalle, C. BEL 348 22-25 16-15 25-25 18-18 10-25 25-25 16-20 13-14 16-20 - - - - - - - - - - - -
3 183 Frossard, S. FRA 326 25-22 22-16 11-0 20-16 25-22 20-14 25-12 25-25 20-6 - - - - - - - - - - - -
4 777 Bobryshev, E. RUS 294 9-18 11-14 15-20 13-10 15-16 18-18 13-14 22-18 25-25 - - - - - - - - - - - -
5 2 Nagl, M. GER 282 20-15 20-25 20-22 16-15 14-12 13-0 18-15 14-11 18-14 - - - - - - - - - - - -
6 19 Philippaerts, D. ITA 250 18-7 18-20 16-12 22-25 20-3 0-0 20-18 6-20 12-13 - - - - - - - - - - - -
7 999 Goncalves, Rui POR 249 13-16 15-18 9-18 11-8 7-18 14-20 14-11 12-13 14-18 - - - - - - - - - - - -
8 7 Barragan, J. ESP 204 15-20 7-11 12-13 4-12 6-15 8-13 12-16 0-12 13-15 - - - - - - - - - - - -
9 121 Boog, Xavier FRA 203 10-13 4-7 7-11 12-13 18-14 16-12 11-13 20-10 8-4 - - - - - - - - - - - -
10 11 Ramon, Steve BEL 203 11-9 13-9 0-14 14-20 9-4 6-16 15-9 15-16 11-12 - - - - - - - - - - - -
11 9 de Dycker, Ken BEL 201 0-4 14-13 0-1 15-11 16-13 15-15 10-10 18-15 15-16 - - - - - - - - - - - -
12 22 Strijbos, K. BEL 161 12-14 5-3 18-16 10-14 12-10 10-10 4-5 9-9 0-0 - - - - - - - - - - - -
13 6 Leok, Tanel EST 146 0-12 12-12 6-6 2-9 11-11 11-11 8-22 7-0 6-0 - - - - - - - - - - - -
14 10 Boissiere, A. FRA 119 6-8 6-8 14-9 9-0 5-8 0-8 7-8 10-6 0-7 - - - - - - - - - - - -
15 24 Simpson, Shaun GBR 113 8-5 1-4 5-15 8-3 8-9 9-9 5-0 0-5 10-9 - - - - - - - - - - - -
16 39 Guarneri, D. ITA 103 16-10 9-10 8-5 - - 2-5 12-0 9-0 0-8 9-0 - - - - - - - - - - - -
17 20 Aranda, G. FRA 54 - - - - 4-7 7-5 0-7 0-0 - - 11-0 5-8 - - - - - - - - - - - -
18 287 Schiffer, M. GER 45 0-0 0-0 - - - - 0-0 7-6 6-7 8-7 4-0 - - - - - - - - - - - -
19 115 Campano Jimenez, C. ESP 45 5-6 0-0 3-2 0-0 - - 4-7 3-6 5-3 0-1 - - - - - - - - - - - -
20 14 de Reuver, M. NED 41 3-0 10-0 0-0 3-7 - - 0-0 - - - - 7-11 - - - - - - - - - - - -..

MX2 – Free Practice – Classification
Pos Nr Rider Nat. Fed. Bike Bestlaptime in lap Diff. First Diff. Prev. Tot. Laps Speed

1 94 Roczen, Ken GER DMSB KTM 2:06.203 11 0:00.000 0:00.000 12 46.639
2 21 Paulin, Gautier FRA MCM Yamaha 2:06.923 8 0:00.720 0:00.720 9 46.375
3 89 van Horebeek, Jeremy BEL FMB KTM 2:07.049 9 0:00.846 0:00.126 10 46.329
4 7 Tonus, Arnaud SUI FMS Yamaha 2:07.260 11 0:01.057 0:00.211 11 46.252
5 100 Searle, Tommy GBR ACU Kawasaki 2:07.466 11 0:01.263 0:00.206 11 46.177
6 131 Aubin, Nicolas FRA FFM KTM 2:08.250 12 0:02.047 0:00.784 12 45.895
7 84 Herlings, Jeffrey NED KNMV KTM 2:08.639 11 0:02.436 0:00.389 12 45.756
8 430 Charlier, Christophe FRA FFM Yamaha 2:09.047 11 0:02.844 0:00.408 12 45.611
9 45 Nicholls, Jake GBR ACU KTM 2:09.248 10 0:03.045 0:00.201 10 45.54
10 77 Lupino, Alessandro ITA FMI Husqvarna 2:09.327 11 0:03.124 0:00.079 11 45.513
11 590 Triest, Nick BEL FMB KTM 2:09.450 10 0:03.247 0:00.123 12 45.469
12 37 Teillet, Valentin FRA FFM Suzuki 2:09.688 9 0:03.485 0:00.238 11 45.386
13 151 Kullas, Harri FIN SML Yamaha 2:09.689 11 0:03.486 0:00.001 14 45.385
14 102 Smitka, Petr CZE ACCR TM 2:09.874 10 0:03.671 0:00.185 11 45.321
15 99 Anstie, Max GBR AMA Kawasaki 2:09.929 13 0:03.726 0:00.055 14 45.302
16 338 Osborne, Zachary USA ACU Yamaha 2:10.103 4 0:03.900 0:00.174 6 45.241
17 152 Petrov, Petar BUL BMF Yamaha 2:10.123 13 0:03.920 0:00.020 13 45.234
18 202 Larrieu, Loic FRA FFM KTM 2:10.194 11 0:03.991 0:00.071 12 45.209
19 122 Ferrandis, Dylan FRA FFM Kawasaki 2:10.229 8 0:04.026 0:00.035 10 45.197
20 911 Tixier, Jordi FRA FFM KTM 2:10.235 12 0:04.032 0:00.006 13 45.195
21 170 Leib, Michael USA FSM Husqvarna 2:10.715 13 0:04.512 0:00.480 13 45.029
22 17 Butron Oliva, Antonio Jose ESP RFME KTM 2:10.888 10 0:04.685 0:00.173 10 44.97
23 76 Rauchenecker, Pascal AUT OeAMTC KTM 2:11.118 10 0:04.915 0:00.230 12 44.891
24 91 Karro, Matiss LAT LAMSF Honda 2:11.804 9 0:05.601 0:00.686 12 44.657
25 20 Svoboda, Bence HUN MAMS KTM 2:12.418 10 0:06.215 0:00.614 12 44.45
26 55 Kras, Mike NED KNMV Suzuki 2:12.572 11 0:06.369 0:00.154 13 44.399
27 33 Lieber, Julien BEL MUL KTM 2:12.726 13 0:06.523 0:00.154 14 44.347
28 519 Baudrexl, Dennis GER DMSB Honda 2:13.411 9 0:07.208 0:00.685 13 44.119
29 262 Del Segato, Giacomo ITA FMI KTM 2:14.727 7 0:08.524 0:01.316 12 43.688
30 128 Monticelli, Ivo ITA FMI Honda 2:15.705 5 0:09.502 0:00.978 13 43.373
31 388 Söderberg, Ludvig FIN SML Kawasaki 2:16.285 12 0:10.082 0:00.580 12 43.189
32 195 Justs, Roberts LAT LAMSF Honda 2:17.270 13 0:11.067 0:00.985 13 42.879
33 114 Booker, Jordan GBR ACU KTM 2:17.319 11 0:11.116 0:00.049 12 42.864
34 777 Zanoni, Swian BRA FMI Honda 2:17.405 9 0:11.202 0:00.086 11 42.837
35 611 Cociu, Mihail MDA FRM Honda 2:19.467 10 0:13.264 0:02.062 10 42.204
36 550 Mitchell, Sean ZIM ZMSF Honda 2:20.280 7 0:14.077 0:00.813 10 41.959
37 300 Golovkin, Viacheslav RUS LAMSF Kawasaki 2:22.184 11 0:15.981 0:01.904 12 41.397

MX2 – Pre-Qualifying Practice – Classification
Pos Nr Rider Nat. Fed. Bike Bestlaptime in lap Diff. First Diff. Prev. Tot. Laps Speed

1 21 Paulin, Gautier FRA MCM Yamaha 2:00.357 6 0:00.000 0:00.000 7 48.905
2 84 Herlings, Jeffrey NED KNMV KTM 2:01.138 10 0:00.781 0:00.781 11 48.589
3 94 Roczen, Ken GER DMSB KTM 2:01.521 10 0:01.164 0:00.383 10 48.436
4 131 Aubin, Nicolas FRA FFM KTM 2:01.869 6 0:01.512 0:00.348 11 48.298
5 100 Searle, Tommy GBR ACU Kawasaki 2:02.185 7 0:01.828 0:00.316 10 48.173
6 338 Osborne, Zachary USA ACU Yamaha 2:02.491 9 0:02.134 0:00.306 9 48.053
7 430 Charlier, Christophe FRA FFM Yamaha 2:02.506 10 0:02.149 0:00.015 12 48.047
8 45 Nicholls, Jake GBR ACU KTM 2:03.365 10 0:03.008 0:00.859 12 47.712
9 77 Lupino, Alessandro ITA FMI Husqvarna 2:03.374 11 0:03.017 0:00.009 11 47.709
10 7 Tonus, Arnaud SUI FMS Yamaha 2:03.585 10 0:03.228 0:00.211 10 47.627
11 202 Larrieu, Loic FRA FFM KTM 2:03.834 11 0:03.477 0:00.249 11 47.531
12 37 Teillet, Valentin FRA FFM Suzuki 2:03.849 9 0:03.492 0:00.015 10 47.526
13 122 Ferrandis, Dylan FRA FFM Kawasaki 2:03.964 6 0:03.607 0:00.115 6 47.482
14 152 Petrov, Petar BUL BMF Yamaha 2:04.019 12 0:03.662 0:00.055 12 47.46
15 17 Butron Oliva, Antonio Jose ESP RFME KTM 2:04.412 11 0:04.055 0:00.393 12 47.311
16 911 Tixier, Jordi FRA FFM KTM 2:04.558 7 0:04.201 0:00.146 13 47.255
17 151 Kullas, Harri FIN SML Yamaha 2:04.559 9 0:04.202 0:00.001 12 47.255
18 590 Triest, Nick BEL FMB KTM 2:05.274 7 0:04.917 0:00.715 10 46.985
19 76 Rauchenecker, Pascal AUT OeAMTC KTM 2:05.288 9 0:04.931 0:00.014 11 46.98
20 99 Anstie, Max GBR AMA Kawasaki 2:05.407 11 0:05.050 0:00.119 11 46.935
21 91 Karro, Matiss LAT LAMSF Honda 2:05.525 12 0:05.168 0:00.118 12 46.891
22 102 Smitka, Petr CZE ACCR TM 2:05.560 4 0:05.203 0:00.035 10 46.878
23 170 Leib, Michael USA FSM Husqvarna 2:06.687 11 0:06.330 0:01.127 11 46.461
24 55 Kras, Mike NED KNMV Suzuki 2:06.741 10 0:06.384 0:00.054 12 46.441
25 519 Baudrexl, Dennis GER DMSB Honda 2:07.087 5 0:06.730 0:00.346 11 46.315
26 128 Monticelli, Ivo ITA FMI Honda 2:07.500 10 0:07.143 0:00.413 12 46.165
27 33 Lieber, Julien BEL MUL KTM 2:07.535 10 0:07.178 0:00.035 12 46.152
28 388 Söderberg, Ludvig FIN SML Kawasaki 2:08.354 8 0:07.997 0:00.819 12 45.858
29 20 Svoboda, Bence HUN MAMS KTM 2:09.024 10 0:08.667 0:00.670 11 45.619
30 611 Cociu, Mihail MDA FRM Honda 2:09.680 6 0:09.323 0:00.656 9 45.389
31 195 Justs, Roberts LAT LAMSF Honda 2:09.748 10 0:09.391 0:00.068 10 45.365
32 114 Booker, Jordan GBR ACU KTM 2:10.408 5 0:10.051 0:00.660 11 45.135
33 777 Zanoni, Swian BRA FMI Honda 2:10.473 9 0:10.116 0:00.065 10 45.113
34 300 Golovkin, Viacheslav RUS LAMSF Kawasaki 2:11.241 11 0:10.884 0:00.768 12 44.849
35 550 Mitchell, Sean ZIM ZMSF Honda 2:13.002 9 0:12.645 0:01.761 9 44.255
36 89 van Horebeek, Jeremy BEL FMB KTM 2:22.877 2 0:22.520 0:09.875 7 41.196
37 262 Del Segato, Giacomo ITA FMI KTM 2:42.527 1 0:42.170 0:19.650 1 36.216

MANCHE QUALIFICATIVE MX2

Holeshot de Jeffrey Herlings, Gautier Paulin deuxième.. Jeremy Van Horebeek absent sur la grille suite à une grosse chute.. Valentin Teillet en difficultés.. Roczen va passer Herlings à 6 min de la fin de manche.. Arnaud Tonus va revenir fort en fin de manche..

MX2 – Qualifying Race – Classification
Pos Nr Rider Nat. Fed. Bike Time laps Diff. First Diff. Prev. Bestlaptime in lap Speed

1 94 Roczen, Ken GER DMSB KTM 25:49.655 12 0:00.000 0:00.000 2:06.280 8 46.611
2 84 Herlings, Jeffrey NED KNMV KTM 25:53.818 12 0:04.163 0:04.163 2:06.497 1 46.531
3 100 Searle, Tommy GBR ACU Kawasaki 26:11.305 12 0:21.650 0:17.487 2:07.438 7 46.187
4 21 Paulin, Gautier FRA MCM Yamaha 26:11.830 12 0:22.175 0:00.525 2:08.503 11 45.804
5 7 Tonus, Arnaud SUI FMS Yamaha 26:14.923 12 0:25.268 0:03.093 2:07.260 10 46.252
6 131 Aubin, Nicolas FRA FFM KTM 26:37.128 12 0:47.473 0:22.205 2:08.234 6 45.9
7 430 Charlier, Christophe FRA FFM Yamaha 26:41.595 12 0:51.940 0:04.467 2:10.470 7 45.114

8 338 Osborne, Zachary USA ACU Yamaha 26:46.084 12 0:56.429 0:04.489 2:09.105 5 45.591
9 45 Nicholls, Jake GBR ACU KTM 26:49.297 12 0:59.642 0:03.213 2:10.833 7 44.989
10 590 Triest, Nick BEL FMB KTM 26:53.136 12 1:03.481 0:03.839 2:10.917 7 44.96
11 151 Kullas, Harri FIN SML Yamaha 26:53.978 12 1:04.323 0:00.842 2:10.749 7 45.018
12 911 Tixier, Jordi FRA FFM KTM 26:56.908 12 1:07.253 0:02.930 2:10.240 8 45.193
13 17 Butron Oliva, Antonio Jose ESP RFME KTM 26:58.806 12 1:09.151 0:01.898 2:11.134 10 44.885
14 152 Petrov, Petar BUL BMF Yamaha 27:03.589 12 1:13.934 0:04.783 2:10.559 6 45.083
15 99 Anstie, Max GBR AMA Kawasaki 27:04.170 12 1:14.515 0:00.581 2:11.033 10 44.92
16 77 Lupino, Alessandro ITA FMI Husqvarna 27:09.545 12 1:19.890 0:05.375 2:11.885 6 44.63
17 202 Larrieu, Loic FRA FFM KTM 27:12.183 12 1:22.528 0:02.638 2:11.500 5 44.76
18 91 Karro, Matiss LAT LAMSF Honda 27:16.485 12 1:26.830 0:04.302 2:12.336 5 44.478
19 102 Smitka, Petr CZE ACCR TM 27:23.452 12 1:33.797 0:06.967 2:11.912 5 44.621
20 37 Teillet, Valentin FRA FFM Suzuki 27:24.787 12 1:35.132 0:01.335 2:11.943 10 44.61
21 33 Lieber, Julien BEL MUL KTM 27:35.582 12 1:45.927 0:10.795 2:14.034 4 43.914
22 519 Baudrexl, Dennis GER DMSB Honda 27:58.368 12 2:08.713 0:22.786 2:15.094 7 43.57
23 128 Monticelli, Ivo ITA FMI Honda 28:06.557 12 2:16.902 0:08.189 2:15.540 7 43.426
24 388 Söderberg, Ludvig FIN SML Kawasaki 25:57.309 11 1 lap 1 lap 2:15.357 5 43.485
25 777 Zanoni, Swian BRA FMI Honda 25:59.020 11 1 lap 0:01.711 2:16.117 6 43.242
26 195 Justs, Roberts LAT LAMSF Honda 26:02.166 11 1 lap 0:03.146 2:17.696 4 42.746
27 611 Cociu, Mihail MDA FRM Honda 26:14.149 11 1 lap 0:11.983 2:17.306 5 42.868
28 76 Rauchenecker, Pascal AUT OeAMTC KTM 26:20.995 11 1 lap 0:06.846 2:16.622 5 43.082
29 114 Booker, Jordan GBR ACU KTM 26:24.581 11 1 lap 0:03.586 2:18.537 5 42.487
30 300 Golovkin, Viacheslav RUS LAMSF Kawasaki 27:00.353 11 1 lap 0:35.772 2:18.849 5 42.391
31 20 Svoboda, Bence HUN MAMS KTM 23:39.313 10 2 laps 1 lap 2:15.343 5 43.49
32 550 Mitchell, Sean ZIM ZMSF Honda 27:20.515 10 2 laps 3:41.202 2:19.516 4 42.189
33 170 Leib, Michael USA FSM Husqvarna 5:05.762 2 10 laps 8 laps 2:18.296 2 42.561
34 55 Kras, Mike NED KNMV Suzuki 0:21.082 0 12 laps 2 laps 0:00.000 0 0

DIMANCHE / MX2 – Warm-up – Classification
Pos Nr Rider Nat. Fed. Bike Bestlaptime in lap Diff. First Diff. Prev. Tot. Laps Speed

1 84 Herlings, Jeffrey NED KNMV KTM 2:02.402 8 0:00.000 0:00.000 8 48.087
2 21 Paulin, Gautier FRA MCM Yamaha 2:03.160 6 0:00.758 0:00.758 7 47.791
3 100 Searle, Tommy GBR ACU Kawasaki 2:03.205 6 0:00.803 0:00.045 7 47.774
4 7 Tonus, Arnaud SUI FMS Yamaha 2:04.552 4 0:02.150 0:01.347 8 47.257
5 45 Nicholls, Jake GBR ACU KTM 2:04.971 6 0:02.569 0:00.419 7 47.099
6 338 Osborne, Zachary USA ACU Yamaha 2:05.005 6 0:02.603 0:00.034 7 47.086
7 430 Charlier, Christophe FRA FFM Yamaha 2:05.294 7 0:02.892 0:00.289 7 46.978
8 37 Teillet, Valentin FRA FFM Suzuki 2:05.737 5 0:03.335 0:00.443 6 46.812
9 590 Triest, Nick BEL FMB KTM 2:05.987 5 0:03.585 0:00.250 8 46.719
10 91 Karro, Matiss LAT LAMSF Honda 2:06.385 6 0:03.983 0:00.398 8 46.572
11 131 Aubin, Nicolas FRA FFM KTM 2:06.626 5 0:04.224 0:00.241 8 46.483
12 17 Butron Oliva, Antonio Jose ESP RFME KTM 2:06.647 5 0:04.245 0:00.021 8 46.476
13 911 Tixier, Jordi FRA FFM KTM 2:06.750 7 0:04.348 0:00.103 8 46.438
14 152 Petrov, Petar BUL BMF Yamaha 2:06.787 4 0:04.385 0:00.037 8 46.424
15 151 Kullas, Harri FIN SML Yamaha 2:06.796 8 0:04.394 0:00.009 9 46.421
16 99 Anstie, Max GBR AMA Kawasaki 2:06.852 6 0:04.450 0:00.056 8 46.401
17 76 Rauchenecker, Pascal AUT OeAMTC KTM 2:07.146 4 0:04.744 0:00.294 8 46.293
18 94 Roczen, Ken GER DMSB KTM 2:07.209 7 0:04.807 0:00.063 8 46.27
19 202 Larrieu, Loic FRA FFM KTM 2:07.262 6 0:04.860 0:00.053 8 46.251
20 20 Svoboda, Bence HUN MAMS KTM 2:07.364 6 0:04.962 0:00.102 8 46.214
21 519 Baudrexl, Dennis GER DMSB KTM 2:07.576 7 0:05.174 0:00.212 9 46.137
22 77 Lupino, Alessandro ITA FMI Husqvarna 2:07.637 5 0:05.235 0:00.061 7 46.115
23 170 Leib, Michael USA FSM Husqvarna 2:07.967 7 0:05.565 0:00.330 7 45.996
24 102 Smitka, Petr CZE ACCR TM 2:08.335 5 0:05.933 0:00.368 7 45.864
25 128 Monticelli, Ivo ITA FMI Honda 2:08.518 7 0:06.116 0:00.183 8 45.799
26 55 Kras, Mike NED KNMV Suzuki 2:08.687 5 0:06.285 0:00.169 8 45.739
27 33 Lieber, Julien BEL MUL KTM 2:09.611 6 0:07.209 0:00.924 8 45.413
28 388 Söderberg, Ludvig FIN SML Kawasaki 2:09.717 3 0:07.315 0:00.106 8 45.376
29 611 Cociu, Mihail MDA FRM Honda 2:10.120 8 0:07.718 0:00.403 8 45.235
30 777 Zanoni, Swian BRA FMI Honda 2:10.599 4 0:08.197 0:00.479 8 45.069
31 114 Booker, Jordan GBR ACU KTM 2:11.337 6 0:08.935 0:00.738 8 44.816
32 195 Justs, Roberts LAT LAMSF Honda 2:11.363 8 0:08.961 0:00.026 8 44.807
33 550 Mitchell, Sean ZIM ZMSF Honda 2:12.623 2 0:10.221 0:01.260 6 44.381
34 300 Golovkin, Viacheslav RUS LAMSF Kawasaki 2:15.237 6 0:12.835 0:02.614 6 43.524

DIMANCHE /1ÈRE MANCHE MX2

Holeshot de Ken Roczen.. Dès le début de la deuxième partie de manche Arnaud Tonus va mettre la pression sur Tommy Searle en réalisant de très bons chronos.. Cavalier seul de Ken Roczen..

MX2 – Grand Prix Race 1 – Classification
Pos Nr Rider Nat. Fed. Bike Time laps Diff. First Diff. Prev. Bestlaptime in lap Speed

1 94 Roczen, Ken GER DMSB KTM 39:30.327 19 0:00.000 0:00.000 2:00.906 5 48.682
2 84 Herlings, Jeffrey NED KNMV KTM 39:41.422 19 0:11.095 0:11.095 2:00.470 4 48.859
3 100 Searle, Tommy GBR ACU Kawasaki 40:08.115 19 0:37.788 0:26.693 2:02.653 4 47.989
4 21 Paulin, Gautier FRA MCM Yamaha 40:12.699 19 0:42.372 0:04.584 2:02.676 3 47.98
5 338 Osborne, Zachary USA ACU Yamaha 40:14.353 19 0:44.026 0:01.654 2:03.390 5 47.702
6 7 Tonus, Arnaud SUI FMS Yamaha 40:16.612 19 0:46.285 0:02.259 2:02.790 3 47.935
7 131 Aubin, Nicolas FRA FFM KTM 40:17.197 19 0:46.870 0:00.585 2:04.975 6 47.097

8 45 Nicholls, Jake GBR ACU KTM 40:30.382 19 1:00.055 0:13.185 2:03.853 4 47.524
9 430 Charlier, Christophe FRA FFM Yamaha 40:50.840 19 1:20.513 0:20.458 2:04.376 4 47.324
10 37 Teillet, Valentin FRA FFM Suzuki 40:54.687 19 1:24.360 0:03.847 2:04.989 4 47.092

11 17 Butron Oliva, Antonio Jose ESP RFME KTM 41:00.869 19 1:30.542 0:06.182 2:05.506 3 46.898
12 590 Triest, Nick BEL FMB KTM 41:04.907 19 1:34.580 0:04.038 2:06.178 6 46.648
13 151 Kullas, Harri FIN SML Yamaha 41:07.720 19 1:37.393 0:02.813 2:07.039 5 46.332
14 202 Larrieu, Loic FRA FFM KTM 41:16.492 19 1:46.165 0:08.772 2:07.612 7 46.124
15 152 Petrov, Petar BUL BMF Yamaha 41:22.229 19 1:51.902 0:05.737 2:06.606 9 46.491
16 911 Tixier, Jordi FRA FFM KTM 41:23.609 19 1:53.282 0:01.380 2:07.578 8 46.136
17 77 Lupino, Alessandro ITA FMI Husqvarna 41:24.519 19 1:54.192 0:00.910 2:07.635 7 46.116
18 99 Anstie, Max GBR AMA Kawasaki 41:28.559 19 1:58.232 0:04.040 2:07.662 6 46.106
19 76 Rauchenecker, Pascal AUT OeAMTC KTM 39:42.096 18 1 lap 1 lap 2:07.074 3 46.319
20 519 Baudrexl, Dennis GER DMSB KTM 39:58.699 18 1 lap 0:16.603 2:08.210 3 45.909
21 102 Smitka, Petr CZE ACCR TM 40:33.967 18 1 lap 0:35.268 2:09.625 6 45.408
22 128 Monticelli, Ivo ITA FMI Honda 40:44.508 18 1 lap 0:10.541 2:11.061 3 44.91
23 114 Booker, Jordan GBR ACU KTM 40:46.684 18 1 lap 0:02.176 2:11.830 2 44.648
24 388 Söderberg, Ludvig FIN SML Kawasaki 41:13.869 18 1 lap 0:27.185 2:10.719 3 45.028
25 33 Lieber, Julien BEL MUL KTM 41:18.250 18 1 lap 0:04.381 2:08.726 3 45.725
26 195 Justs, Roberts LAT LAMSF Honda 41:40.155 18 1 lap 0:21.905 2:11.380 3 44.801
27 300 Golovkin, Viacheslav RUS LAMSF Kawasaki 39:40.070 17 2 laps 1 lap 2:12.982 3 44.262
28 611 Cociu, Mihail MDA FRM Honda 40:04.836 17 2 laps 0:24.766 2:13.796 3 43.992
29 777 Zanoni, Swian BRA FMI Honda 29:35.429 13 6 laps 4 laps 2:11.949 3 44.608
30 170 Leib, Michael USA FSM Husqvarna 18:11.942 8 11 laps 5 laps 2:07.727 2 46.083
31 550 Mitchell, Sean ZIM ZMSF Honda 16:00.125 7 12 laps 1 lap 2:11.956 2 44.606
32 91 Karro, Matiss LAT LAMSF Honda 4:39.560 2 17 laps 5 laps 2:07.796 2 46.058
33 20 Svoboda, Bence HUN MAMS KTM 4:46.735 2 17 laps 0:07.175 2:11.308 2 44.826

2 ÈME MANCHE MX2

Holeshot de Roczen.. Chute de Christophe Charlier au départ qui semble blessé (il repartira..).. Ken Roczen qui chute dans le premier tour et Paulin prend la tête de course.. Le Pilote KTM va alors entamer une remontée de folie.. Grosse chute de Nicolas Aubin à 17 mn de la fin de manche.. Abandon de Christophe Charlier.. Ken Roczen passe 3 Ème à 7 min de la fin de manche..

MX2 – Grand Prix Race 2 – Classification
Pos Nr Rider Nat. Fed. Bike Time laps Diff. First Diff. Prev. Bestlaptime in lap Speed
1 21 Paulin, Gautier FRA MCM Yamaha 39:55.909 19 0:00.000 0:00.000 2:03.862 4 47.521

2 100 Searle, Tommy GBR ACU Kawasaki 39:59.137 19 0:03.228 0:03.228 2:03.899 8 47.506
3 94 Roczen, Ken GER DMSB KTM 40:10.958 19 0:15.049 0:11.821 2:02.871 5 47.904
4 84 Herlings, Jeffrey NED KNMV KTM 40:15.141 19 0:19.232 0:04.183 2:03.042 4 47.837
5 7 Tonus, Arnaud SUI FMS Yamaha 40:24.332 19 0:28.423 0:09.191 2:05.662 13 46.84
6 338 Osborne, Zachary USA ACU Yamaha 40:27.558 19 0:31.649 0:03.226 2:04.822 4 47.155
7 37 Teillet, Valentin FRA FFM Suzuki 40:51.221 19 0:55.312 0:23.663 2:06.145 5 46.661
8 45 Nicholls, Jake GBR ACU KTM 40:54.643 19 0:58.734 0:03.422 2:06.607 7 46.49
9 17 Butron Oliva, Antonio Jose ESP RFME KTM 41:02.536 19 1:06.627 0:07.893 2:06.654 7 46.473
10 99 Anstie, Max GBR AMA Kawasaki 41:04.064 19 1:08.155 0:01.528 2:06.135 5 46.664
11 151 Kullas, Harri FIN SML Yamaha 41:09.527 19 1:13.618 0:05.463 2:07.550 8 46.147
12 77 Lupino, Alessandro ITA FMI Husqvarna 41:33.799 19 1:37.890 0:24.272 2:07.359 5 46.216
13 202 Larrieu, Loic FRA FFM KTM 41:38.146 19 1:42.237 0:04.347 2:07.427 5 46.191
14 91 Karro, Matiss LAT LAMSF Honda 41:41.281 19 1:45.372 0:03.135 2:07.862 5 46.034
15 76 Rauchenecker, Pascal AUT OeAMTC KTM 40:02.448 18 1 lap 1 lap 2:08.566 9 45.782
16 55 Kras, Mike NED KNMV Suzuki 40:05.206 18 1 lap 0:02.758 2:09.936 3 45.299
17 33 Lieber, Julien BEL MUL KTM 40:10.363 18 1 lap 0:05.157 2:09.243 5 45.542
18 911 Tixier, Jordi FRA FFM KTM 40:20.498 18 1 lap 0:10.135 2:09.697 7 45.383
19 20 Svoboda, Bence HUN MAMS KTM 40:23.671 18 1 lap 0:03.173 2:11.615 3 44.721
20 114 Booker, Jordan GBR ACU KTM 40:34.081 18 1 lap 0:10.410 2:12.072 8 44.567
21 131 Aubin, Nicolas FRA FFM KTM 40:39.107 18 1 lap 0:05.026 2:05.943 9 46.735
22 590 Triest, Nick BEL FMB KTM 40:43.752 18 1 lap 0:04.645 2:09.460 8 45.466
23 195 Justs, Roberts LAT LAMSF Honda 40:45.598 18 1 lap 0:01.846 2:12.397 11 44.457
24 611 Cociu, Mihail MDA FRM Honda 41:26.730 18 1 lap 0:41.132 2:13.671 4 44.033
25 388 Söderberg, Ludvig FIN SML Kawasaki 39:56.956 17 2 laps 1 lap 2:12.375 3 44.465
26 300 Golovkin, Viacheslav RUS LAMSF Kawasaki 40:09.468 15 4 laps 2 laps 2:17.282 7 42.875
27 128 Monticelli, Ivo ITA FMI Honda 29:27.524 13 6 laps 2 laps 2:12.003 6 44.59
28 102 Smitka, Petr CZE ACCR TM 13:27.768 6 13 laps 7 laps 2:09.213 4 45.553
29 550 Mitchell, Sean ZIM ZMSF Honda 4:57.877 2 17 laps 4 laps 2:15.951 2 43.295
30 152 Petrov, Petar BUL BMF Yamaha 0:19.590 0 19 laps 2 laps 0:00.000 0 0
31 519 Baudrexl, Dennis GER DMSB KTM 0:54.294 0 19 laps 0:34.704 0:00.000 0 0
32 430 Charlier, Christophe FRA FFM Yamaha 2:49.344 0 19 laps 1:55.050 0:00.000 0 0

MX2 – GP Classification
Pos Nr Rider Nat. Fed. Bike Race 1 Race 2 Total

1 94 Roczen, Ken GER DMSB KTM 25 20 45
2 21 Paulin, Gautier FRA MCM Yamaha 18 25 43
3 100 Searle, Tommy GBR ACU Kawasaki 20 22 42
4 84 Herlings, Jeffrey NED KNMV KTM 22 18 40
5 7 Tonus, Arnaud SUI FMS Yamaha 15 16 31
6 338 Osborne, Zachary USA ACU Yamaha 16 15 31
7 45 Nicholls, Jake GBR ACU KTM 13 13 26
8 37 Teillet, Valentin FRA FFM Suzuki 11 14 25
9 17 Butron Oliva, Antonio Jose ESP RFME KTM 10 12 22
10 151 Kullas, Harri FIN SML Yamaha 8 10 18
11 202 Larrieu, Loic FRA FFM KTM 7 8 15
12 99 Anstie, Max GBR AMA Kawasaki 3 11 14
13 131 Aubin, Nicolas FRA FFM KTM 14 0 14
14 77 Lupino, Alessandro ITA FMI Husqvarna 4 9 13
15 430 Charlier, Christophe FRA FFM Yamaha 12 0 12
16 590 Triest, Nick BEL FMB KTM 9 0 9
17 76 Rauchenecker, Pascal AUT OeAMTC KTM 2 6 8
18 911 Tixier, Jordi FRA FFM KTM 5 3 8
19 91 Karro, Matiss LAT LAMSF Honda 0 7 7
20 152 Petrov, Petar BUL BMF Yamaha 6 0 6
21 55 Kras, Mike NED KNMV Suzuki 0 5 5
22 33 Lieber, Julien BEL MUL KTM 0 4 4
23 20 Svoboda, Bence HUN MAMS KTM 0 2 2
24 114 Booker, Jordan GBR ACU KTM 0 1 1
25 519 Baudrexl, Dennis GER DMSB KTM 1 0 1
26 195 Justs, Roberts LAT LAMSF Honda 0 0 0
27 611 Cociu, Mihail MDA FRM Honda 0 0 0
28 388 Söderberg, Ludvig FIN SML Kawasaki 0 0 0
29 300 Golovkin, Viacheslav RUS LAMSF Kawasaki 0 0 0
30 128 Monticelli, Ivo ITA FMI Honda 0 0 0
31 102 Smitka, Petr CZE ACCR TM 0 0 0
32 550 Mitchell, Sean ZIM ZMSF Honda 0 0 0
33 777 Zanoni, Swian BRA FMI Honda 0 0 0
34 170 Leib, Michael USA FSM Husqvarna 0 0 0

MX2 – World Championship Classification
Pos Nr Rider Nat. Total BUL NED USA BRA FRA POR ESP SWE GER LAT BEL CZE GBR EUR ITA

1 94 Roczen, Ken GER 396 25-25 22-22 25-25 25-22 25-10 25-0 25-25 25-25 25-20 - - - - - - - - - - - -
2 84 Herlings, J. NED 377 16-20 25-25 22-22 22-25 14-22 22-22 20-18 20-22 22-18 - - - - - - - - - - - -
3 100 Searle, Tommy GBR 328 22-22 20-20 16-20 18-18 18-25 0-25 22-22 0-18 20-22 - - - - - - - - - - - -
4 21 Paulin, G. FRA 319 20-14 16-15 15-0 20-20 22-18 16-20 18-20 22-20 18-25 - - - - - - - - - - - -
5 338 Osborne, Z. USA 265 14-18 15-13 12-18 16-16 20-20 20-16 0-15 10-11 16-15 - - - - - - - - - - - -
6 7 Tonus, Arnaud SUI 256 18-13 18-18 14-0 14-13 16-14 10-18 15-16 15-13 15-16 - - - - - - - - - - - -
7 99 Anstie, Max GBR 215 13-15 11-12 20-16 15-14 4-15 18-14 0-0 18-16 3-11 - - - - - - - - - - - -
8 151 Kullas, Harri FIN 197 11-7 14-14 18-10 10-12 11-12 11-12 11-11 5-10 8-10 - - - - - - - - - - - -
9 131 Aubin, Nicolas FRA 192 12-12 12-0 9-14 7-7 15-16 5-13 16-13 12-15 14-0 - - - - - - - - - - - -
10 430 Charlier, C. FRA 170 7-11 7-11 13-13 12-15 0-13 13-15 - - 14-14 12-0 - - - - - - - - - - - -

11 34 Roelants, Joel BEL 166 10-9 13-16 7-12 13-10 13-11 15-9 14-14 0-0 - - - - - - - - - - - - - -
12 77 Lupino, A. ITA 106 1-10 0-3 6-7 9-4 0-7 9-6 8-9 9-5 4-9 - - - - - - - - - - - -
13 911 Tixier, Jordi FRA 99 8-3 3-6 8-11 11-11 9-0 0-1 4-8 0-8 5-3 - - - - - - - - - - - -
14 45 Nicholls, Jake GBR 92 - - - - - - - - 10-8 8-10 7-10 13-0 13-13 - - - - - - - - - - - -
15 25 Coldenhoff, G. NED 90 6-8 9-8 - - - - 8-6 14-7 12-12 0-0 - - - - - - - - - - - - - -
16 17 Butron Oliva, A. ESP 84 4-2 8-7 - - - - 7-1 12-11 10-0 0-0 10-12 - - - - - - - - - - - -
17 590 Triest, Nick BEL 77 0-4 0-4 - - - - 5-9 7-8 13-6 6-6 9-0 - - - - - - - - - - - -
18 152 Petrov, Petar BUL 70 3-0 0-10 10-3 5-0 0-3 6-4 6-0 7-7 6-0 - - - - - - - - - - - -
19 76 Rauchenecker, P. AUT 63 5-5 4-0 3-8 8-9 6-4 0-0 0-3 0-0 2-6 - - - - - - - - - - - -
20 89 van Horebeek, J. BEL 59 15-16 - - - - - - - - - - - - 16-12 - - - - - - - - - - - - - -
21 37 Teillet, V. FRA 45 0-0 - - - - - - - - - - - - 11-9 11-14 - - - - - - - - - - - -..

(Photo : Honda Racing et KTM/Ray Archer)

A voir aussi :

3 commentaires sur “MX LIVE – GP D’ALLEMAGNE : INFOS ET RÉSULTATS SUR PRE111IERMOTOCROSS”

  1. manumx dit :

    ouais ben pour pourcel j’aurais mieux fais de parié sur ce genre de résulta j’aurai gagné lol

  2. Devotee dit :

    Hum hum double DNF pour Pourcel et nouvelle grosse chute en seconde manche pour Aubin..

  3. start dit :

    Bonjour , les dés sont jetés , en mx1 Pourcel n est pas loin du top 5 malgré la perte de compétition évidente , et en mx2 le renouveau d Aubin au top 6,7 est rassurante , Paulin ne serait il pas (un peu ) lourd sur la (petite ) Yam ? il esrait mieux en Mx1 , vivement demain soir pour les résultats de Frossard Pourcel , Paulin et Aubin , wait and see